Time;durP1;ratioP1;P1;durP2;ratioP2;P2;SDS_P1;SDS_P2;PMS_P1;PMS_P2;Temp;Humidity;BMP_temperature;BMP_pressure;BME280_temperature;BME280_humidity;BME280_pressure;Samples;Min_cycle;Max_cycle;Signal;HPM_P1;HPM_P2
2022/02/16 00:01:37;;;;;;;7.95;3.35;;;;;;;-1.01;52.94;99811.41;5130377;27;20050;-54
2022/02/16 00:04:03;;;;;;;6.85;2.95;;;;;;;-1.13;53.09;99798.47;5131017;27;20498;-52
2022/02/16 00:06:30;;;;;;;6.43;2.67;;;;;;;-1.01;52.89;99807.16;5113253;27;20046;-56
2022/02/16 00:08:56;;;;;;;5.43;2.88;;;;;;;-1.03;53.00;99800.31;5130533;27;20047;-50
2022/02/16 00:11:21;;;;;;;5.10;2.13;;;;;;;-1.02;53.14;99799.47;5112516;28;20486;-53
2022/02/16 00:13:47;;;;;;;7.32;2.38;;;;;;;-1.01;53.07;99802.06;5131137;28;20043;-52
2022/02/16 00:16:13;;;;;;;7.43;2.90;;;;;;;-1.11;53.01;99784.91;5112962;28;20042;-54
2022/02/16 00:18:39;;;;;;;6.85;3.05;;;;;;;-1.16;53.28;99778.03;5130950;28;20034;-52
2022/02/16 00:21:07;;;;;;;6.22;2.88;;;;;;;-1.12;53.26;99774.69;5113004;28;20035;-52
2022/02/16 00:23:33;;;;;;;7.80;1.92;;;;;;;-1.04;53.52;99791.78;5131158;28;20039;-51
2022/02/16 00:26:02;;;;;;;7.93;2.72;;;;;;;-1.04;53.33;99784.16;5130727;28;20066;-53
2022/02/16 00:28:31;;;;;;;5.78;2.80;;;;;;;-1.04;53.28;99794.34;5130840;28;20035;-49
2022/02/16 00:30:56;;;;;;;8.38;3.55;;;;;;;-1.06;53.48;99785.84;5130885;28;20448;-55
2022/02/16 00:33:22;;;;;;;7.15;2.72;;;;;;;-1.07;53.83;99780.72;5131209;28;20035;-51
2022/02/16 00:35:48;;;;;;;4.28;1.88;;;;;;;-1.08;53.84;99778.97;5129566;28;20088;-57
2022/02/16 00:38:14;;;;;;;4.72;2.22;;;;;;;-1.09;53.87;99788.31;5130896;28;20050;-57
2022/02/16 00:40:40;;;;;;;5.47;2.58;;;;;;;-1.11;53.96;99771.31;5127647;27;20039;-56
2022/02/16 00:43:05;;;;;;;8.98;3.45;;;;;;;-1.11;54.01;99771.31;5133823;27;20050;-57
2022/02/16 00:45:32;;;;;;;4.55;2.17;;;;;;;-1.15;54.04;99767.84;5135832;27;20062;-53
2022/02/16 00:47:59;;;;;;;5.07;2.13;;;;;;;-1.14;54.25;99764.44;5134931;27;20043;-51
2022/02/16 00:50:26;;;;;;;6.40;3.00;;;;;;;-1.33;54.23;99727.66;5061850;28;20506;-57
2022/02/16 00:52:52;;;;;;;7.05;2.80;;;;;;;-1.16;54.32;99765.28;5096754;28;20507;-54
2022/02/16 00:55:18;;;;;;;5.47;2.17;;;;;;;-1.18;54.76;99765.25;5116528;27;20081;-54
2022/02/16 00:57:44;;;;;;;6.05;2.47;;;;;;;-1.21;54.38;99757.56;5115740;27;20035;-51
2022/02/16 01:00:10;;;;;;;8.27;3.08;;;;;;;-1.21;54.56;99759.25;5099209;27;20073;-53
2022/02/16 01:02:49;;;;;;;7.70;3.05;;;;;;;-1.23;54.71;99755.81;5132271;27;20059;-55
2022/02/16 01:05:15;;;;;;;6.25;3.00;;;;;;;-1.24;54.98;99746.44;5098674;27;20043;-56
2022/02/16 01:07:41;;;;;;;6.38;3.05;;;;;;;-1.26;54.85;99750.69;5133412;27;20051;-54
2022/02/16 01:10:09;;;;;;;5.13;2.03;;;;;;;-1.29;55.09;99737.06;5116137;27;20051;-52
2022/02/16 01:12:39;;;;;;;6.15;2.35;;;;;;;-1.30;55.07;99739.56;5132868;27;20896;-53
2022/02/16 01:15:05;;;;;;;5.68;2.63;;;;;;;-1.30;55.16;99739.56;5133703;27;20039;-53
2022/02/16 01:17:37;;;;;;;3.00;1.67;;;;;;;-1.31;55.00;99737.88;5119879;27;20059;-52
2022/02/16 01:20:10;;;;;;;5.80;2.53;;;;;;;-1.30;55.49;99724.28;5132936;27;20039;-52
2022/02/16 01:22:37;;;;;;;10.73;3.60;;;;;;;-1.32;55.57;99728.50;5133095;27;20603;-52
2022/02/16 01:25:09;;;;;;;5.65;2.53;;;;;;;-1.32;55.60;99731.06;5133310;27;20041;-52
2022/02/16 01:27:35;;;;;;;6.70;2.97;;;;;;;-1.34;55.64;99718.28;5115929;27;20043;-55
2022/02/16 01:30:01;;;;;;;3.92;2.53;;;;;;;-1.35;55.49;99724.22;5097612;27;20084;-51
2022/02/16 01:32:47;;;;;;;9.07;3.70;;;;;;;-1.39;55.73;99713.94;5132543;27;20066;-52
2022/02/16 01:35:17;;;;;;;10.38;2.63;;;;;;;-1.39;56.06;99717.34;5114320;27;20487;-51
2022/02/16 01:37:43;;;;;;;5.80;2.47;;;;;;;-1.40;55.68;99718.19;5132720;27;20039;-53
2022/02/16 01:40:09;;;;;;;6.03;2.30;;;;;;;-1.42;56.07;99726.66;5115736;27;20125;-54
2022/02/16 01:42:39;;;;;;;5.97;2.38;;;;;;;-1.42;56.24;99721.56;5098122;27;20058;-54
2022/02/16 01:45:14;;;;;;;7.80;3.22;;;;;;;-1.45;56.25;99704.53;5104252;27;20100;-52
2022/02/16 01:47:40;;;;;;;7.07;3.10;;;;;;;-1.43;56.08;99712.19;5099440;27;20130;-54
2022/02/16 01:50:09;;;;;;;7.38;3.30;;;;;;;-1.43;56.30;99702.00;5115260;27;20137;-53
2022/02/16 01:52:35;;;;;;;7.68;2.38;;;;;;;-1.44;56.13;99711.34;5131331;27;20035;-51
2022/02/16 01:55:02;;;;;;;6.70;3.50;;;;;;;-1.46;56.39;99702.81;5132213;27;20053;-54
2022/02/16 01:57:29;;;;;;;5.63;2.35;;;;;;;-1.48;56.65;99699.41;5115428;27;20054;-52
2022/02/16 02:00:07;;;;;;;8.25;2.33;;;;;;;-1.46;56.58;99701.94;5111099;28;20059;-50
2022/02/16 02:02:44;;;;;;;6.25;2.92;;;;;;;-1.48;56.70;99701.09;5111015;28;20048;-53
2022/02/16 02:05:17;;;;;;;4.72;2.25;;;;;;;-1.50;56.84;99690.00;5112001;28;20047;-52
2022/02/16 02:07:43;;;;;;;6.72;3.15;;;;;;;-1.53;56.87;99698.47;5111209;28;20043;-55
2022/02/16 02:10:10;;;;;;;8.55;3.05;;;;;;;-1.53;57.00;99688.28;5111565;28;20529;-54
2022/02/16 02:12:48;;;;;;;6.90;2.87;;;;;;;-1.56;56.94;99684.81;5128430;27;20126;-52
2022/02/16 02:15:21;;;;;;;7.20;3.20;;;;;;;-1.54;56.89;99685.69;5128012;27;20043;-52
2022/02/16 02:18:23;;;;;;;6.25;2.50;;;;;;;-1.58;56.89;99684.81;5089851;28;20502;-53
2022/02/16 02:20:49;;;;;;;8.05;2.63;;;;;;;-1.61;57.57;99684.75;5089778;28;20545;-53
2022/02/16 02:23:17;;;;;;;7.47;3.65;;;;;;;-1.61;57.44;99683.88;5072791;28;20048;-54
2022/02/16 02:25:44;;;;;;;5.72;2.38;;;;;;;-1.69;57.26;99660.84;5089873;28;20104;-51
2022/02/16 02:28:10;;;;;;;7.47;2.65;;;;;;;-1.61;57.42;99681.34;5073438;28;20059;-52
2022/02/16 02:30:35;;;;;;;6.57;2.72;;;;;;;-1.61;57.38;99686.44;5072769;28;20515;-53
2022/02/16 02:33:01;;;;;;;6.72;2.58;;;;;;;-1.66;57.51;99694.03;5072709;28;20051;-52
2022/02/16 02:35:27;;;;;;;6.63;2.70;;;;;;;-1.67;57.57;99689.75;5071796;28;20044;-52
2022/02/16 02:37:53;;;;;;;10.05;3.25;;;;;;;-1.66;57.52;99688.06;5089538;28;20422;-54
2022/02/16 02:40:19;;;;;;;8.05;3.30;;;;;;;-1.67;57.50;99684.66;5089785;28;20094;-54
2022/02/16 02:42:46;;;;;;;8.93;3.70;;;;;;;-1.67;57.58;99688.94;5056062;28;20044;-54
2022/02/16 02:45:13;;;;;;;6.95;3.00;;;;;;;-1.68;57.65;99695.72;5069060;28;20463;-57
2022/02/16 02:47:42;;;;;;;8.77;2.53;;;;;;;-1.68;57.76;99688.06;5068037;28;20048;-54
2022/02/16 02:50:09;;;;;;;8.25;2.92;;;;;;;-1.78;57.75;99678.56;5055045;28;20624;-52
2022/02/16 02:52:36;;;;;;;8.23;2.90;;;;;;;-1.79;57.91;99669.22;5085878;28;20192;-56
2022/02/16 02:55:07;;;;;;;6.28;2.85;;;;;;;-1.77;58.12;99670.06;5110909;28;20035;-54
2022/02/16 02:57:33;;;;;;;5.55;2.80;;;;;;;-1.73;58.02;99662.50;5102326;28;20097;-53
2022/02/16 02:59:59;;;;;;;6.45;2.78;;;;;;;-1.91;57.98;99626.56;5087284;27;20529;-55
2022/02/16 03:02:26;;;;;;;4.63;2.38;;;;;;;-1.74;58.20;99662.50;5113185;27;20533;-55
2022/02/16 03:04:53;;;;;;;4.93;2.38;;;;;;;-1.75;58.40;99658.22;5097077;27;20046;-55
2022/02/16 03:07:20;;;;;;;8.93;3.67;;;;;;;-1.78;58.22;99659.00;5097129;27;20479;-54
2022/02/16 03:09:46;;;;;;;10.02;3.58;;;;;;;-1.77;58.39;99658.19;5132370;27;20041;-50
2022/02/16 03:12:11;;;;;;;5.05;2.78;;;;;;;-1.79;58.60;99652.22;5131352;27;20030;-52
2022/02/16 03:14:37;;;;;;;9.98;4.18;;;;;;;-1.79;58.62;99653.91;5130462;27;20095;-56
2022/02/16 03:17:03;;;;;;;7.50;2.65;;;;;;;-1.78;58.82;99655.63;5130651;27;20046;-56
2022/02/16 03:19:29;;;;;;;9.60;4.15;;;;;;;-1.76;58.74;99657.34;5112815;27;20058;-55
2022/02/16 03:21:56;;;;;;;6.75;2.70;;;;;;;-1.79;58.93;99659.88;5097014;27;20039;-55
2022/02/16 03:24:24;;;;;;;10.57;3.42;;;;;;;-1.90;58.97;99646.13;5113611;27;20070;-54
2022/02/16 03:26:49;;;;;;;9.05;3.03;;;;;;;-1.80;58.71;99645.41;5078556;27;20078;-54
2022/02/16 03:29:20;;;;;;;7.93;3.03;;;;;;;-1.79;58.91;99652.22;5113202;27;20067;-51
2022/02/16 03:31:53;;;;;;;7.47;3.45;;;;;;;-1.80;58.92;99659.84;5080207;27;20122;-50
2022/02/16 03:34:19;;;;;;;6.60;2.88;;;;;;;-1.81;59.22;99653.03;5113126;27;20129;-54
2022/02/16 03:36:47;;;;;;;3.37;2.10;;;;;;;-1.85;59.17;99643.63;5130229;27;20583;-54
2022/02/16 03:39:13;;;;;;;9.30;3.00;;;;;;;-1.82;59.23;99647.06;5111132;27;20039;-57
2022/02/16 03:41:40;;;;;;;7.00;3.58;;;;;;;-1.93;59.24;99622.28;5112956;27;20051;-54
2022/02/16 03:44:07;;;;;;;5.10;2.55;;;;;;;-1.82;59.35;99633.47;5112957;27;20133;-54
2022/02/16 03:46:39;;;;;;;4.05;2.03;;;;;;;-1.83;59.38;99634.31;5113189;27;20445;-51
2022/02/16 03:49:05;;;;;;;7.57;3.25;;;;;;;-1.84;59.51;99637.72;5129665;27;20042;-53
2022/02/16 03:51:33;;;;;;;4.50;2.22;;;;;;;-1.95;59.53;99624.81;5129528;27;20050;-53
2022/02/16 03:53:59;;;;;;;10.95;4.28;;;;;;;-1.87;59.60;99637.66;5130064;27;20095;-51
2022/02/16 03:56:26;;;;;;;9.48;4.05;;;;;;;-1.89;59.68;99636.78;5112306;27;20490;-53
2022/02/16 03:58:53;;;;;;;10.73;4.05;;;;;;;-2.00;59.94;99617.94;5112340;27;20039;-54
2022/02/16 04:01:20;;;;;;;6.50;2.65;;;;;;;-1.90;60.07;99624.88;5112857;27;20057;-54
2022/02/16 04:03:46;;;;;;;11.40;3.63;;;;;;;-1.93;59.46;99638.41;5112599;27;20076;-55
2022/02/16 04:06:11;;;;;;;10.40;4.45;;;;;;;-1.95;60.09;99632.47;5131064;27;20039;-53
2022/02/16 04:08:37;;;;;;;8.88;3.75;;;;;;;-1.94;60.42;99633.31;5131298;27;20046;-50
2022/02/16 04:11:05;;;;;;;13.20;2.88;;;;;;;-1.95;60.06;99629.91;5112622;28;20062;-56
2022/02/16 04:13:31;;;;;;;12.05;5.50;;;;;;;-2.06;60.52;99636.53;5129579;28;20084;-51
2022/02/16 04:15:59;;;;;;;9.70;3.92;;;;;;;-1.96;60.32;99623.09;5111865;28;20039;-55
2022/02/16 04:18:25;;;;;;;7.22;2.72;;;;;;;-1.94;60.48;99630.78;5130020;28;20518;-54
2022/02/16 04:20:52;;;;;;;7.88;3.22;;;;;;;-1.98;60.45;99624.75;5128838;28;20047;-51
2022/02/16 04:23:23;;;;;;;7.22;3.40;;;;;;;-2.00;60.72;99626.44;5113230;28;20525;-53
2022/02/16 04:25:49;;;;;;;12.90;4.05;;;;;;;-1.99;60.76;99617.94;5112912;28;20043;-53
2022/02/16 04:28:15;;;;;;;7.28;3.17;;;;;;;-2.01;60.65;99619.63;5130221;28;20039;-51
2022/02/16 04:30:41;;;;;;;10.48;3.65;;;;;;;-2.04;60.95;99624.66;5129860;28;20039;-53
2022/02/16 04:33:07;;;;;;;10.05;3.25;;;;;;;-2.05;61.28;99620.44;5095578;28;20379;-50
2022/02/16 04:35:34;;;;;;;8.68;4.00;;;;;;;-2.04;61.28;99628.94;5112160;28;20046;-50
2022/02/16 04:38:00;;;;;;;10.43;4.07;;;;;;;-2.04;61.18;99639.13;5129518;28;20514;-53
2022/02/16 04:40:26;;;;;;;7.07;2.72;;;;;;;-2.07;61.33;99628.88;5111178;28;20099;-56
2022/02/16 04:42:54;;;;;;;14.48;4.15;;;;;;;-2.06;61.45;99628.03;5112745;28;20525;-55
2022/02/16 04:45:20;;;;;;;9.57;3.92;;;;;;;-2.05;61.51;99629.75;5112091;28;20126;-55
2022/02/16 04:47:46;;;;;;;10.15;4.05;;;;;;;-2.04;61.54;99627.22;5099573;28;20142;-55
2022/02/16 04:50:12;;;;;;;9.48;3.10;;;;;;;-2.00;61.34;99628.13;5113061;28;20047;-52
2022/02/16 04:52:38;;;;;;;15.50;5.20;;;;;;;-2.01;61.75;99627.28;5078601;28;20446;-54
2022/02/16 04:55:25;;;;;;;12.38;4.25;;;;;;;-2.00;61.66;99626.44;5129499;28;20050;-53
2022/02/16 04:57:54;;;;;;;12.23;4.75;;;;;;;-2.00;61.59;99626.44;5092686;28;20046;-50
2022/02/16 05:00:21;;;;;;;8.68;3.55;;;;;;;-1.99;61.64;99633.22;5110903;28;20043;-52
2022/02/16 05:02:56;;;;;;;10.30;4.72;;;;;;;-2.04;61.78;99617.03;5096171;28;20040;-52
2022/02/16 05:05:21;;;;;;;12.15;5.22;;;;;;;-2.06;61.93;99611.06;5129549;28;20421;-54
2022/02/16 05:07:47;;;;;;;11.18;5.30;;;;;;;-1.96;61.77;99622.25;5129755;27;20043;-55
2022/02/16 05:10:13;;;;;;;9.48;3.15;;;;;;;-1.95;62.05;99631.59;5111692;28;20061;-52
2022/02/16 05:12:41;;;;;;;9.65;4.22;;;;;;;-1.95;62.17;99634.16;5128899;28;20506;-56
2022/02/16 05:15:08;;;;;;;10.77;4.97;;;;;;;-1.93;62.11;99632.47;5111107;28;20043;-56
2022/02/16 05:17:34;;;;;;;8.45;3.05;;;;;;;-2.02;61.78;99612.81;5091677;28;20043;-58
2022/02/16 05:20:00;;;;;;;14.32;3.80;;;;;;;-1.97;61.88;99626.47;5120511;27;20043;-54
2022/02/16 05:22:28;;;;;;;12.27;4.78;;;;;;;-1.82;61.91;99641.97;5136790;27;20062;-55
2022/02/16 05:24:56;;;;;;;12.90;4.93;;;;;;;-1.75;61.85;99635.28;5112029;28;20062;-57
2022/02/16 05:27:22;;;;;;;9.13;3.95;;;;;;;-1.74;61.85;99637.88;5111983;27;20061;-53
2022/02/16 05:29:48;;;;;;;9.40;3.35;;;;;;;-1.74;61.65;99632.78;5135145;27;20131;-54
2022/02/16 05:32:14;;;;;;;10.50;3.30;;;;;;;-1.63;61.59;99642.25;5132329;27;20419;-49
2022/02/16 05:34:39;;;;;;;7.20;3.30;;;;;;;-1.56;61.54;99634.69;5115425;27;20042;-53
2022/02/16 05:37:06;;;;;;;9.88;4.95;;;;;;;-1.47;61.28;99636.53;5114364;27;20512;-51
2022/02/16 05:39:32;;;;;;;10.98;5.47;;;;;;;-1.35;61.14;99637.50;5083063;28;20039;-52
2022/02/16 05:41:59;;;;;;;10.07;4.20;;;;;;;-1.12;60.36;99634.38;5079250;28;20526;-55
2022/02/16 05:44:26;;;;;;;8.55;3.35;;;;;;;-0.65;59.17;99643.41;5132281;27;20047;-54
2022/02/16 05:46:52;;;;;;;12.52;4.65;;;;;;;-0.34;58.51;99634.31;5135095;27;20106;-51
2022/02/16 05:49:18;;;;;;;7.45;2.90;;;;;;;-0.24;58.16;99637.81;5127656;27;20454;-55
2022/02/16 05:51:44;;;;;;;8.18;3.75;;;;;;;0.16;56.95;99650.03;5115265;27;20055;-53
2022/02/16 05:54:12;;;;;;;12.07;4.50;;;;;;;0.45;56.09;99645.09;5117322;27;20104;-56
2022/02/16 05:56:39;;;;;;;17.67;5.40;;;;;;;0.73;55.71;99646.94;5114081;27;20050;-58
2022/02/16 05:59:11;;;;;;;10.70;4.32;;;;;;;0.97;54.10;99642.78;5113373;27;20075;-52
2022/02/16 06:01:38;;;;;;;10.75;4.63;;;;;;;1.31;54.38;99626.63;5121564;27;20460;-52
2022/02/16 06:04:04;;;;;;;16.23;5.55;;;;;;;1.89;52.70;99627.53;5079651;27;20506;-55
2022/02/16 06:06:33;;;;;;;11.48;5.82;;;;;;;2.23;51.58;99628.38;5100933;27;20047;-52
2022/02/16 06:08:59;;;;;;;9.43;3.85;;;;;;;2.53;50.28;99619.72;5109762;27;20403;-54
2022/02/16 06:11:25;;;;;;;11.20;5.00;;;;;;;2.58;50.04;99620.56;5141754;27;20050;-50
2022/02/16 06:13:55;;;;;;;13.88;5.22;;;;;;;3.12;48.96;99626.31;5106553;27;20510;-54
2022/02/16 06:16:21;;;;;;;15.73;6.47;;;;;;;3.70;48.16;99630.22;5121733;27;20095;-53
2022/02/16 06:18:47;;;;;;;10.93;5.75;;;;;;;4.35;46.13;99630.50;5124514;27;20071;-54
2022/02/16 06:21:13;;;;;;;11.05;6.30;;;;;;;4.64;45.63;99629.34;5110299;27;20046;-57
2022/02/16 06:23:40;;;;;;;12.35;5.43;;;;;;;4.85;44.56;99624.78;5113421;27;20066;-57
2022/02/16 06:26:06;;;;;;;12.55;5.35;;;;;;;4.89;44.46;99621.31;5117623;27;20537;-55
2022/02/16 06:28:32;;;;;;;12.77;5.57;;;;;;;4.87;43.74;99621.31;5136983;27;20038;-56
2022/02/16 06:30:58;;;;;;;15.43;6.35;;;;;;;4.98;44.16;99623.75;5117970;27;20154;-56
2022/02/16 06:33:24;;;;;;;13.25;5.97;;;;;;;5.13;43.24;99618.41;5110679;27;20071;-56
2022/02/16 06:35:50;;;;;;;15.93;5.28;;;;;;;4.90;43.31;99613.56;5111385;27;20070;-57
2022/02/16 06:38:17;;;;;;;16.63;6.25;;;;;;;4.96;43.29;99628.09;5110367;27;20398;-57
2022/02/16 06:40:43;;;;;;;12.60;5.50;;;;;;;5.33;43.14;99623.31;5113164;27;20050;-58
2022/02/16 06:43:10;;;;;;;8.40;4.28;;;;;;;5.49;42.18;99619.63;5130019;27;20050;-56
2022/02/16 06:45:36;;;;;;;6.05;3.03;;;;;;;5.47;41.65;99601.59;5137948;27;20047;-55
2022/02/16 06:48:02;;;;;;;12.30;3.88;;;;;;;5.81;41.04;99612.22;5117344;27;20043;-57
2022/02/16 06:50:29;;;;;;;8.10;4.75;;;;;;;6.18;41.04;99609.03;5117697;27;20065;-59
2022/02/16 06:53:08;;;;;;;8.98;4.18;;;;;;;6.29;40.08;99609.72;5118550;27;20042;-54
2022/02/16 06:55:35;;;;;;;10.88;4.85;;;;;;;6.64;39.73;99585.81;5135811;27;20532;-55
2022/02/16 06:58:01;;;;;;;13.07;5.95;;;;;;;6.59;39.61;99596.25;5132601;27;20046;-58
2022/02/16 07:00:28;;;;;;;15.35;6.57;;;;;;;6.49;39.82;99594.69;5095633;27;20112;-56
2022/02/16 07:02:54;;;;;;;13.40;6.80;;;;;;;6.60;39.89;99591.91;5111637;27;20472;-54
2022/02/16 07:05:30;;;;;;;13.90;5.60;;;;;;;6.35;39.88;99581.19;5115546;27;20434;-58
2022/02/16 07:07:58;;;;;;;11.15;4.45;;;;;;;6.33;40.47;99581.22;5107633;27;20465;-46
2022/02/16 07:10:26;;;;;;;15.48;5.38;;;;;;;6.50;39.99;99590.38;5126862;27;20049;-51
2022/02/16 07:12:52;;;;;;;15.77;5.28;;;;;;;6.49;39.65;99575.78;5114493;27;20105;-51
2022/02/16 07:15:18;;;;;;;12.38;6.13;;;;;;;6.95;39.48;99589.47;5107338;27;20042;-53
2022/02/16 07:17:50;;;;;;;13.68;6.40;;;;;;;7.17;39.07;99579.53;5114065;27;20030;-48
2022/02/16 07:20:16;;;;;;;16.63;6.55;;;;;;;7.07;39.27;99570.22;5115221;27;20226;-52
2022/02/16 07:22:47;;;;;;;11.70;5.50;;;;;;;6.39;39.90;99594.03;5107366;27;20084;-50
2022/02/16 07:25:14;;;;;;;12.20;5.75;;;;;;;5.84;41.40;99590.69;5107270;27;20042;-51
2022/02/16 07:27:41;;;;;;;13.98;6.53;;;;;;;5.66;42.25;99581.53;5109367;27;20045;-52
2022/02/16 07:30:09;;;;;;;13.88;5.22;;;;;;;6.10;41.48;99583.38;5107639;27;20066;-51
2022/02/16 07:32:39;;;;;;;14.45;7.35;;;;;;;6.84;40.30;99580.22;5113689;27;20060;-48
2022/02/16 07:35:08;;;;;;;15.73;6.93;;;;;;;7.16;39.98;99575.22;5124503;27;20514;-48
2022/02/16 07:37:34;;;;;;;20.67;7.75;;;;;;;7.71;38.74;99576.50;5107549;27;20061;-48
2022/02/16 07:40:00;;;;;;;13.90;5.55;;;;;;;8.07;37.73;99554.88;5107666;27;20506;-48
2022/02/16 07:42:27;;;;;;;16.52;7.75;;;;;;;8.47;37.30;99567.66;5108110;27;20934;-48
2022/02/16 07:45:13;;;;;;;12.63;5.88;;;;;;;8.83;36.50;99564.00;5138159;27;20043;-49
2022/02/16 07:47:41;;;;;;;16.60;7.27;;;;;;;9.12;35.85;99557.09;5126101;27;20514;-49
2022/02/16 07:50:07;;;;;;;17.60;7.88;;;;;;;9.54;35.65;99555.75;5089529;27;20296;-49
2022/02/16 07:52:52;;;;;;;16.15;7.43;;;;;;;9.52;35.39;99562.75;5141591;27;20050;-48
2022/02/16 07:55:28;;;;;;;17.25;7.10;;;;;;;9.44;35.18;99558.69;5125495;27;20088;-48
2022/02/16 07:57:58;;;;;;;16.83;8.02;;;;;;;9.85;35.24;99555.59;5114595;27;20042;-50
2022/02/16 08:00:25;;;;;;;15.52;7.10;;;;;;;10.23;34.11;99561.25;5111746;27;20076;-53
2022/02/16 08:03:02;;;;;;;12.40;6.47;;;;;;;10.28;34.52;99552.41;5110333;27;20043;-52
2022/02/16 08:05:28;;;;;;;16.05;7.55;;;;;;;10.67;34.03;99557.09;5112869;27;20043;-51
2022/02/16 08:07:54;;;;;;;15.25;7.72;;;;;;;11.12;33.00;99554.50;5112276;27;20089;-52
2022/02/16 08:10:20;;;;;;;13.20;7.10;;;;;;;11.97;31.77;99543.25;5115374;27;20095;-49
2022/02/16 08:12:53;;;;;;;16.75;8.43;;;;;;;12.98;30.93;99553.53;5126162;27;20031;-47
2022/02/16 08:15:19;;;;;;;15.15;7.60;;;;;;;13.74;29.58;99531.59;5130238;27;20153;-49
2022/02/16 08:17:45;;;;;;;14.82;7.80;;;;;;;14.00;29.20;99552.06;5097965;27;20039;-50
2022/02/16 08:20:12;;;;;;;13.63;8.00;;;;;;;13.98;29.06;99548.66;5114288;27;20135;-48
2022/02/16 08:23:04;;;;;;;17.65;8.00;;;;;;;13.68;29.12;99543.22;5099943;27;20128;-51
2022/02/16 08:25:30;;;;;;;15.38;7.80;;;;;;;13.62;29.13;99543.50;5136395;27;20039;-46
2022/02/16 08:28:05;;;;;;;16.30;8.27;;;;;;;12.50;30.21;99526.16;5108975;28;20047;-47
2022/02/16 08:30:31;;;;;;;16.38;8.23;;;;;;;13.25;30.06;99541.81;5106052;27;20039;-46
2022/02/16 08:32:58;;;;;;;14.63;7.57;;;;;;;13.73;29.03;99540.38;5105585;28;20039;-51
2022/02/16 08:35:31;;;;;;;17.08;9.13;;;;;;;14.58;28.28;99536.84;5089800;28;20054;-50
2022/02/16 08:37:57;;;;;;;16.50;8.48;;;;;;;15.16;27.62;99529.31;5125967;27;20118;-50
2022/02/16 08:40:23;;;;;;;16.88;9.82;;;;;;;14.64;27.66;99530.47;5130110;27;20856;-49
2022/02/16 08:42:49;;;;;;;15.55;8.35;;;;;;;14.43;28.08;99528.97;5135380;27;20047;-49
2022/02/16 08:45:16;;;;;;;18.13;8.82;;;;;;;14.39;28.36;99533.53;5136756;27;20042;-48
2022/02/16 08:47:42;;;;;;;16.88;8.80;;;;;;;14.93;27.60;99532.34;5135547;27;20129;-50
2022/02/16 08:50:08;;;;;;;18.20;9.00;;;;;;;14.65;27.79;99526.91;5137865;27;20133;-46
2022/02/16 08:52:34;;;;;;;16.48;8.85;;;;;;;14.64;27.81;99533.91;5116971;27;20043;-51
2022/02/16 08:55:00;;;;;;;18.67;9.77;;;;;;;15.54;27.53;99529.81;5128383;27;20035;-48
2022/02/16 08:57:26;;;;;;;16.58;8.90;;;;;;;15.72;26.60;99527.91;5124911;27;20049;-50
2022/02/16 08:59:51;;;;;;;15.90;9.18;;;;;;;15.26;26.76;99506.91;5124706;27;20035;-48
2022/02/16 09:02:17;;;;;;;16.20;9.00;;;;;;;15.35;26.89;99517.78;5109015;27;20601;-48
2022/02/16 09:04:43;;;;;;;16.45;9.20;;;;;;;15.24;27.08;99526.25;5129237;27;20088;-53
2022/02/16 09:09:52;;;;;;;15.05;9.25;;;;;;;15.06;27.67;99522.06;5128762;27;20039;-47
2022/02/16 09:12:18;;;;;;;16.92;9.68;;;;;;;15.22;27.54;99520.28;5110518;27;20042;-49
2022/02/16 09:14:44;;;;;;;17.80;9.13;;;;;;;14.60;27.79;99500.97;5127457;27;20039;-48
2022/02/16 09:17:10;;;;;;;18.90;9.93;;;;;;;14.49;28.33;99511.19;5133516;27;20125;-48
2022/02/16 09:19:37;;;;;;;23.75;9.73;;;;;;;15.22;27.97;99512.41;5134189;27;20110;-50
2022/02/16 09:22:03;;;;;;;17.13;8.35;;;;;;;14.75;27.85;99513.25;5107723;27;20122;-48
2022/02/16 09:24:30;;;;;;;17.73;9.05;;;;;;;13.40;29.33;99493.22;5111182;27;20090;-54
2022/02/16 09:26:55;;;;;;;16.85;9.00;;;;;;;13.01;30.23;99507.25;5128843;27;20039;-49
2022/02/16 09:29:25;;;;;;;17.20;8.13;;;;;;;13.13;30.55;99505.88;5128769;27;20050;-47
2022/02/16 09:31:52;;;;;;;18.88;9.63;;;;;;;13.05;30.72;99505.34;5126445;27;20109;-47
2022/02/16 09:34:18;;;;;;;20.67;9.50;;;;;;;12.65;31.42;99509.81;5109334;27;20125;-52
2022/02/16 09:36:45;;;;;;;20.30;9.77;;;;;;;12.51;31.74;99498.31;5100403;28;20070;-48
2022/02/16 09:39:11;;;;;;;14.80;7.40;;;;;;;12.47;32.02;99522.81;5126798;27;20565;-50
2022/02/16 09:41:37;;;;;;;17.33;8.57;;;;;;;11.62;33.34;99506.47;5109769;27;20505;-50
2022/02/16 09:44:03;;;;;;;17.80;9.98;;;;;;;10.79;34.61;99499.41;5128598;27;20157;-50
2022/02/16 09:46:29;;;;;;;14.02;7.65;;;;;;;10.96;34.62;99508.28;5109376;27;20087;-49
2022/02/16 09:48:56;;;;;;;16.17;8.15;;;;;;;10.87;35.15;99503.44;5127406;27;20039;-48
2022/02/16 09:51:22;;;;;;;20.55;9.88;;;;;;;11.29;34.67;99487.03;5127945;27;20513;-49
2022/02/16 09:53:47;;;;;;;17.50;8.38;;;;;;;11.61;34.14;99472.69;5114882;27;20608;-46
2022/02/16 09:56:13;;;;;;;20.70;10.27;;;;;;;11.57;33.92;99468.50;5133043;27;20039;-51
2022/02/16 09:58:39;;;;;;;21.23;9.13;;;;;;;11.25;34.52;99473.28;5125469;27;20175;-53
2022/02/16 10:01:11;;;;;;;13.60;7.85;;;;;;;10.10;36.31;99457.75;5128767;27;20062;-50
2022/02/16 10:03:37;;;;;;;17.13;8.95;;;;;;;9.55;36.85;99463.16;5136341;27;20039;-48
2022/02/16 10:06:04;;;;;;;16.00;9.35;;;;;;;8.82;38.27;99466.41;5139808;27;20042;-50
2022/02/16 10:08:44;;;;;;;17.88;9.40;;;;;;;8.48;39.51;99463.94;5133442;27;20088;-50
2022/02/16 10:11:11;;;;;;;18.42;9.40;;;;;;;8.32;39.32;99443.75;5133162;27;20043;-52
2022/02/16 10:13:37;;;;;;;22.17;10.32;;;;;;;8.58;39.63;99464.56;5117183;27;20130;-52
2022/02/16 10:16:04;;;;;;;22.38;9.25;;;;;;;8.34;39.95;99460.06;5138257;27;20091;-50
2022/02/16 10:18:29;;;;;;;17.80;9.18;;;;;;;8.17;40.20;99459.66;5128092;27;20039;-54
2022/02/16 10:21:08;;;;;;;17.23;7.95;;;;;;;7.42;41.44;99474.63;5113418;27;20596;-51
2022/02/16 10:23:44;;;;;;;14.93;7.10;;;;;;;6.78;42.99;99442.53;5110498;27;20046;-45
2022/02/16 10:26:10;;;;;;;18.48;8.93;;;;;;;6.79;43.49;99466.66;5123979;27;20078;-49
2022/02/16 10:28:47;;;;;;;17.50;9.23;;;;;;;6.42;44.04;99455.41;5107761;27;20034;-51
2022/02/16 10:31:15;;;;;;;20.33;9.38;;;;;;;6.53;43.90;99449.16;5096531;27;20053;-50
2022/02/16 10:33:43;;;;;;;16.33;7.90;;;;;;;6.54;44.10;99455.16;5135527;27;20035;-49
2022/02/16 10:36:14;;;;;;;23.27;10.98;;;;;;;6.25;45.45;99437.69;5132588;27;20043;-54
2022/02/16 10:39:01;;;;;;;23.27;10.93;;;;;;;6.45;44.70;99442.44;5115537;27;20507;-48
2022/02/16 10:41:40;;;;;;;24.13;10.77;;;;;;;6.06;45.61;99438.97;5132812;27;20042;-48
2022/02/16 10:44:22;;;;;;;20.45;9.80;;;;;;;5.89;46.07;99434.97;5133731;27;20141;-50
2022/02/16 10:47:05;;;;;;;19.02;10.07;;;;;;;5.99;46.11;99437.38;5130742;27;20387;-48
2022/02/16 10:49:33;;;;;;;22.63;10.23;;;;;;;6.01;45.87;99433.03;5129995;27;20069;-49
2022/02/16 10:52:05;;;;;;;22.55;10.98;;;;;;;6.06;46.02;99420.91;5132486;27;20071;-51
2022/02/16 10:54:31;;;;;;;23.40;10.40;;;;;;;6.15;46.31;99424.13;5108200;27;20426;-51
2022/02/16 10:56:57;;;;;;;23.45;11.25;;;;;;;6.28;45.77;99430.72;5130709;27;20034;-49
2022/02/16 10:59:23;;;;;;;14.90;7.50;;;;;;;6.10;46.65;99395.00;5134882;27;20035;-47
2022/02/16 11:01:49;;;;;;;23.52;11.45;;;;;;;6.06;47.14;99405.41;5137851;27;20082;-47
2022/02/16 11:04:15;;;;;;;27.75;12.20;;;;;;;6.34;46.36;99402.19;5137185;27;20444;-48
2022/02/16 11:06:47;;;;;;;27.10;12.15;;;;;;;6.67;45.35;99397.16;5117246;27;20031;-49
2022/02/16 11:09:21;;;;;;;21.80;11.93;;;;;;;6.90;45.16;99396.63;5141269;27;20561;-48
2022/02/16 11:11:51;;;;;;;21.48;10.50;;;;;;;7.02;45.08;99396.31;5139511;27;20042;-46
2022/02/16 11:14:18;;;;;;;22.50;9.98;;;;;;;6.96;45.18;99392.16;5124365;27;20394;-49
2022/02/16 11:16:47;;;;;;;22.58;11.90;;;;;;;6.81;45.50;99382.19;5137201;27;20039;-50
2022/02/16 11:19:24;;;;;;;22.38;9.80;;;;;;;6.48;45.75;99373.50;5134069;27;20081;-49
2022/02/16 11:22:03;;;;;;;23.17;10.93;;;;;;;6.47;45.99;99391.63;5131818;27;20514;-50
2022/02/16 11:24:35;;;;;;;20.30;8.23;;;;;;;6.13;46.20;99392.34;5131127;27;20449;-49
2022/02/16 11:27:38;;;;;;;22.02;10.55;;;;;;;6.18;46.88;99387.91;5131139;27;20066;-47
2022/02/16 11:30:05;;;;;;;25.77;11.82;;;;;;;6.02;46.73;99383.16;5073038;28;20059;-49
2022/02/16 11:32:38;;;;;;;25.38;11.93;;;;;;;5.87;47.51;99389.44;5119869;27;20035;-53
2022/02/16 11:35:11;;;;;;;23.98;8.75;;;;;;;6.07;47.03;99381.31;5131660;27;20133;-50
2022/02/16 11:37:40;;;;;;;22.50;11.05;;;;;;;6.19;46.88;99353.50;5129604;27;20053;-53
2022/02/16 11:40:08;;;;;;;22.15;10.30;;;;;;;6.65;46.22;99368.78;5118285;27;20041;-54